Quinby, South Carolina
Current Conditions -  °F | °C
As of 3:53 PM on Thursday 23 Oct 2014 (Local Time) from KFLO Reporting Station
Clear Clear  
Wind Chill: 70°   Ceiling: Unl
Heat Index: 70°   Visibility: 10mi
Dew Point: 41°   Wind: 12mph
Humidity: 35%   Direction: 310°NW
Pressure: 29.97"   Gusts: NA
Location:  34.2096°N, 79.7279°W
Report Text: KFLO 231953Z 31010KT 10SM CLR 21/05 A2997 RMK AO2 SLP145 T02110050
Loading
Personal Weather Stations






























Interactive Weather Map New forecast layout! Learn more

10-Day Weather Forecast

Advertisements
Track Severe Weather on mobile